sensor_id;sensor_type;location;lat;lon;timestamp;pressure;altitude;pressure_sealevel;temperature;humidity
55289;BME280;41154;45.394;5.734;2023-04-26T00:02:10;96924.59;;;4.66;100.00
55289;BME280;41154;45.394;5.734;2023-04-26T00:04:38;96920.72;;;4.62;100.00
55289;BME280;41154;45.394;5.734;2023-04-26T00:07:03;96929.75;;;4.54;100.00
55289;BME280;41154;45.394;5.734;2023-04-26T00:09:29;96923.38;;;4.62;100.00
55289;BME280;41154;45.394;5.734;2023-04-26T00:11:56;96929.38;;;4.50;100.00
55289;BME280;41154;45.394;5.734;2023-04-26T00:14:21;96931.41;;;4.48;100.00
55289;BME280;41154;45.394;5.734;2023-04-26T00:16:47;96932.25;;;4.49;100.00
55289;BME280;41154;45.394;5.734;2023-04-26T00:19:13;96936.34;;;4.45;100.00
55289;BME280;41154;45.394;5.734;2023-04-26T00:21:40;96933.41;;;4.60;100.00
55289;BME280;41154;45.394;5.734;2023-04-26T00:24:06;96933.69;;;4.45;100.00
55289;BME280;41154;45.394;5.734;2023-04-26T00:26:33;96937.66;;;4.29;100.00
55289;BME280;41154;45.394;5.734;2023-04-26T00:29:00;96944.19;;;4.26;100.00
55289;BME280;41154;45.394;5.734;2023-04-26T00:31:25;96940.34;;;4.16;100.00
55289;BME280;41154;45.394;5.734;2023-04-26T00:33:51;96949.47;;;4.33;100.00
55289;BME280;41154;45.394;5.734;2023-04-26T00:36:16;96938.25;;;4.31;100.00
55289;BME280;41154;45.394;5.734;2023-04-26T00:38:47;96938.88;;;4.26;100.00
55289;BME280;41154;45.394;5.734;2023-04-26T00:41:13;96934.97;;;4.36;100.00
55289;BME280;41154;45.394;5.734;2023-04-26T00:43:39;96936.69;;;4.17;100.00
55289;BME280;41154;45.394;5.734;2023-04-26T00:46:07;96935.06;;;4.09;100.00
55289;BME280;41154;45.394;5.734;2023-04-26T00:48:33;96941.56;;;4.20;100.00
55289;BME280;41154;45.394;5.734;2023-04-26T00:51:00;96939.34;;;4.17;100.00
55289;BME280;41154;45.394;5.734;2023-04-26T00:53:27;96944.13;;;3.94;100.00
55289;BME280;41154;45.394;5.734;2023-04-26T00:55:55;96951.66;;;3.98;100.00
55289;BME280;41154;45.394;5.734;2023-04-26T00:58:21;96953.59;;;4.22;100.00
55289;BME280;41154;45.394;5.734;2023-04-26T01:00:47;96949.19;;;4.03;100.00
55289;BME280;41154;45.394;5.734;2023-04-26T01:03:14;96947.97;;;3.99;100.00
55289;BME280;41154;45.394;5.734;2023-04-26T01:05:41;96948.78;;;4.06;100.00
55289;BME280;41154;45.394;5.734;2023-04-26T01:08:09;96952.50;;;3.85;100.00
55289;BME280;41154;45.394;5.734;2023-04-26T01:10:36;96955.34;;;3.83;100.00
55289;BME280;41154;45.394;5.734;2023-04-26T01:13:02;96964.09;;;4.04;100.00
55289;BME280;41154;45.394;5.734;2023-04-26T01:15:28;96951.88;;;3.96;100.00
55289;BME280;41154;45.394;5.734;2023-04-26T01:17:58;96950.41;;;4.00;100.00
55289;BME280;41154;45.394;5.734;2023-04-26T01:20:24;96948.81;;;3.86;100.00
55289;BME280;41154;45.394;5.734;2023-04-26T01:22:51;96954.94;;;3.86;100.00
55289;BME280;41154;45.394;5.734;2023-04-26T01:25:17;96957.22;;;3.76;100.00
55289;BME280;41154;45.394;5.734;2023-04-26T01:27:43;96949.25;;;3.69;100.00
55289;BME280;41154;45.394;5.734;2023-04-26T01:30:10;96954.72;;;3.88;100.00
55289;BME280;41154;45.394;5.734;2023-04-26T01:32:37;96949.69;;;3.73;100.00
55289;BME280;41154;45.394;5.734;2023-04-26T01:35:04;96952.38;;;3.53;100.00
55289;BME280;41154;45.394;5.734;2023-04-26T01:37:30;96948.09;;;3.38;100.00
55289;BME280;41154;45.394;5.734;2023-04-26T01:39:58;96951.97;;;3.36;100.00
55289;BME280;41154;45.394;5.734;2023-04-26T01:42:24;96949.13;;;3.31;100.00
55289;BME280;41154;45.394;5.734;2023-04-26T01:44:50;96946.88;;;3.21;100.00
55289;BME280;41154;45.394;5.734;2023-04-26T01:47:16;96936.66;;;3.18;100.00
55289;BME280;41154;45.394;5.734;2023-04-26T01:49:41;96949.31;;;3.22;100.00
55289;BME280;41154;45.394;5.734;2023-04-26T01:52:07;96942.78;;;3.25;100.00
55289;BME280;41154;45.394;5.734;2023-04-26T01:54:33;96936.47;;;3.33;100.00
55289;BME280;41154;45.394;5.734;2023-04-26T01:56:59;96941.97;;;3.11;100.00
55289;BME280;41154;45.394;5.734;2023-04-26T01:59:26;96939.53;;;3.16;100.00
55289;BME280;41154;45.394;5.734;2023-04-26T02:01:52;96939.34;;;3.11;100.00
55289;BME280;41154;45.394;5.734;2023-04-26T02:04:17;96944.41;;;3.19;100.00
55289;BME280;41154;45.394;5.734;2023-04-26T02:06:43;96937.50;;;3.18;100.00
55289;BME280;41154;45.394;5.734;2023-04-26T02:09:09;96934.63;;;3.27;100.00
55289;BME280;41154;45.394;5.734;2023-04-26T02:11:39;96930.97;;;3.21;100.00
55289;BME280;41154;45.394;5.734;2023-04-26T02:14:04;96937.91;;;3.22;100.00
55289;BME280;41154;45.394;5.734;2023-04-26T02:16:30;96932.22;;;3.12;100.00
55289;BME280;41154;45.394;5.734;2023-04-26T02:18:57;96927.50;;;3.20;100.00
55289;BME280;41154;45.394;5.734;2023-04-26T02:21:23;96927.72;;;3.12;100.00
55289;BME280;41154;45.394;5.734;2023-04-26T02:23:49;96931.38;;;3.11;100.00
55289;BME280;41154;45.394;5.734;2023-04-26T02:26:15;96925.88;;;3.06;100.00
55289;BME280;41154;45.394;5.734;2023-04-26T02:28:42;96931.38;;;3.04;100.00
55289;BME280;41154;45.394;5.734;2023-04-26T02:31:08;96930.56;;;2.91;100.00
55289;BME280;41154;45.394;5.734;2023-04-26T02:33:33;96925.66;;;2.94;100.00
55289;BME280;41154;45.394;5.734;2023-04-26T02:36:03;96936.28;;;3.01;100.00
55289;BME280;41154;45.394;5.734;2023-04-26T02:38:33;96928.13;;;2.96;100.00
55289;BME280;41154;45.394;5.734;2023-04-26T02:41:01;96925.28;;;2.84;100.00
55289;BME280;41154;45.394;5.734;2023-04-26T02:43:27;96912.22;;;2.82;100.00
55289;BME280;41154;45.394;5.734;2023-04-26T02:45:53;96911.41;;;2.88;100.00
55289;BME280;41154;45.394;5.734;2023-04-26T02:48:19;96910.19;;;2.84;100.00
55289;BME280;41154;45.394;5.734;2023-04-26T02:50:48;96913.22;;;2.81;100.00
55289;BME280;41154;45.394;5.734;2023-04-26T02:53:14;96918.13;;;2.84;100.00
55289;BME280;41154;45.394;5.734;2023-04-26T02:55:41;96916.91;;;2.87;100.00
55289;BME280;41154;45.394;5.734;2023-04-26T02:58:07;96919.97;;;2.91;100.00
55289;BME280;41154;45.394;5.734;2023-04-26T03:00:34;96912.66;;;2.99;100.00
55289;BME280;41154;45.394;5.734;2023-04-26T03:03:00;96914.47;;;2.99;100.00
55289;BME280;41154;45.394;5.734;2023-04-26T03:05:27;96912.22;;;3.09;100.00
55289;BME280;41154;45.394;5.734;2023-04-26T03:07:53;96916.72;;;2.88;100.00
55289;BME280;41154;45.394;5.734;2023-04-26T03:10:20;96916.09;;;2.86;100.00
55289;BME280;41154;45.394;5.734;2023-04-26T03:12:46;96918.94;;;2.78;100.00
55289;BME280;41154;45.394;5.734;2023-04-26T03:15:13;96903.66;;;2.80;100.00
55289;BME280;41154;45.394;5.734;2023-04-26T03:17:40;96908.75;;;2.82;100.00
55289;BME280;41154;45.394;5.734;2023-04-26T03:20:08;96900.78;;;2.82;100.00
55289;BME280;41154;45.394;5.734;2023-04-26T03:22:36;96905.69;;;2.78;100.00
55289;BME280;41154;45.394;5.734;2023-04-26T03:25:02;96905.06;;;2.69;100.00
55289;BME280;41154;45.394;5.734;2023-04-26T03:27:28;96911.78;;;2.72;100.00
55289;BME280;41154;45.394;5.734;2023-04-26T03:29:54;96905.25;;;2.61;100.00
55289;BME280;41154;45.394;5.734;2023-04-26T03:32:20;96901.13;;;2.32;100.00
55289;BME280;41154;45.394;5.734;2023-04-26T03:34:46;96904.81;;;2.44;100.00
55289;BME280;41154;45.394;5.734;2023-04-26T03:37:14;96899.50;;;2.31;100.00
55289;BME280;41154;45.394;5.734;2023-04-26T03:39:42;96903.75;;;2.25;100.00
55289;BME280;41154;45.394;5.734;2023-04-26T03:42:09;96911.72;;;2.32;100.00
55289;BME280;41154;45.394;5.734;2023-04-26T03:44:35;96911.50;;;2.20;100.00
55289;BME280;41154;45.394;5.734;2023-04-26T03:47:01;96912.91;;;2.23;100.00
55289;BME280;41154;45.394;5.734;2023-04-26T03:49:28;96906.41;;;2.25;100.00
55289;BME280;41154;45.394;5.734;2023-04-26T03:51:54;96917.19;;;2.24;100.00
55289;BME280;41154;45.394;5.734;2023-04-26T03:54:20;96914.13;;;2.20;100.00
55289;BME280;41154;45.394;5.734;2023-04-26T03:56:46;96912.50;;;2.19;100.00
55289;BME280;41154;45.394;5.734;2023-04-26T03:59:12;96916.66;;;2.42;100.00
55289;BME280;41154;45.394;5.734;2023-04-26T04:01:38;96916.59;;;2.22;100.00
55289;BME280;41154;45.394;5.734;2023-04-26T04:04:04;96910.47;;;2.21;100.00
55289;BME280;41154;45.394;5.734;2023-04-26T04:06:30;96911.72;;;2.32;100.00
55289;BME280;41154;45.394;5.734;2023-04-26T04:08:55;96913.94;;;2.28;100.00
55289;BME280;41154;45.394;5.734;2023-04-26T04:11:22;96922.09;;;2.27;100.00
55289;BME280;41154;45.394;5.734;2023-04-26T04:13:48;96916.19;;;2.25;100.00
55289;BME280;41154;45.394;5.734;2023-04-26T04:16:13;96915.56;;;2.23;100.00
55289;BME280;41154;45.394;5.734;2023-04-26T04:18:39;96916.19;;;2.25;100.00
55289;BME280;41154;45.394;5.734;2023-04-26T04:21:05;96913.94;;;2.22;100.00
55289;BME280;41154;45.394;5.734;2023-04-26T04:23:32;96909.22;;;2.10;100.00
55289;BME280;41154;45.394;5.734;2023-04-26T04:26:00;96922.47;;;2.10;100.00
55289;BME280;41154;45.394;5.734;2023-04-26T04:28:26;96926.53;;;2.20;100.00
55289;BME280;41154;45.394;5.734;2023-04-26T04:30:53;96924.94;;;2.32;100.00
55289;BME280;41154;45.394;5.734;2023-04-26T04:33:21;96925.34;;;2.29;100.00
55289;BME280;41154;45.394;5.734;2023-04-26T04:35:47;96934.72;;;2.31;100.00
55289;BME280;41154;45.394;5.734;2023-04-26T04:38:13;96948.50;;;2.13;100.00
55289;BME280;41154;45.394;5.734;2023-04-26T04:40:39;96943.25;;;2.27;100.00
55289;BME280;41154;45.394;5.734;2023-04-26T04:43:04;96949.31;;;2.07;100.00
55289;BME280;41154;45.394;5.734;2023-04-26T04:45:31;96951.34;;;2.12;100.00
55289;BME280;41154;45.394;5.734;2023-04-26T04:47:58;96950.53;;;2.11;100.00
55289;BME280;41154;45.394;5.734;2023-04-26T04:50:25;96954.44;;;2.15;100.00
55289;BME280;41154;45.394;5.734;2023-04-26T04:52:51;96958.72;;;2.23;100.00
55289;BME280;41154;45.394;5.734;2023-04-26T04:55:17;96958.16;;;2.34;100.00
55289;BME280;41154;45.394;5.734;2023-04-26T04:57:44;96960.59;;;2.29;100.00
55289;BME280;41154;45.394;5.734;2023-04-26T05:00:10;96958.94;;;2.28;100.00
55289;BME280;41154;45.394;5.734;2023-04-26T05:02:57;96974.13;;;2.68;100.00
55289;BME280;41154;45.394;5.734;2023-04-26T05:05:24;96970.88;;;2.73;100.00
55289;BME280;41154;45.394;5.734;2023-04-26T05:07:49;96966.41;;;2.73;100.00
55289;BME280;41154;45.394;5.734;2023-04-26T05:10:15;96973.72;;;2.71;100.00
55289;BME280;41154;45.394;5.734;2023-04-26T05:12:41;96974.13;;;2.68;100.00
55289;BME280;41154;45.394;5.734;2023-04-26T05:15:07;96975.75;;;2.56;100.00
55289;BME280;41154;45.394;5.734;2023-04-26T05:17:33;96968.41;;;2.58;100.00
55289;BME280;41154;45.394;5.734;2023-04-26T05:20:08;96972.25;;;2.55;100.00
55289;BME280;41154;45.394;5.734;2023-04-26T05:22:35;96985.47;;;2.42;100.00
55289;BME280;41154;45.394;5.734;2023-04-26T05:25:03;96985.09;;;2.51;100.00
55289;BME280;41154;45.394;5.734;2023-04-26T05:27:29;96982.91;;;2.75;100.00
55289;BME280;41154;45.394;5.734;2023-04-26T05:30:14;96985.19;;;2.92;100.00
55289;BME280;41154;45.394;5.734;2023-04-26T05:32:47;96978.06;;;2.92;100.00
55289;BME280;41154;45.394;5.734;2023-04-26T05:35:35;96977.47;;;3.23;100.00
55289;BME280;41154;45.394;5.734;2023-04-26T05:38:01;96975.44;;;3.12;100.00
55289;BME280;41154;45.394;5.734;2023-04-26T05:40:26;96977.66;;;3.02;100.00
55289;BME280;41154;45.394;5.734;2023-04-26T05:42:52;96990.09;;;2.95;100.00
55289;BME280;41154;45.394;5.734;2023-04-26T05:45:18;96988.44;;;2.94;100.00
55289;BME280;41154;45.394;5.734;2023-04-26T05:47:44;96983.78;;;3.09;100.00
55289;BME280;41154;45.394;5.734;2023-04-26T05:50:12;96980.13;;;3.10;100.00
55289;BME280;41154;45.394;5.734;2023-04-26T05:52:38;96984.75;;;2.88;100.00
55289;BME280;41154;45.394;5.734;2023-04-26T05:55:04;96981.94;;;3.03;100.00
55289;BME280;41154;45.394;5.734;2023-04-26T05:57:31;96979.50;;;3.08;100.00
55289;BME280;41154;45.394;5.734;2023-04-26T05:59:57;96976.63;;;3.16;100.00
55289;BME280;41154;45.394;5.734;2023-04-26T06:02:23;96979.53;;;5.04;100.00
55289;BME280;41154;45.394;5.734;2023-04-26T06:04:50;96997.44;;;7.37;100.00
55289;BME280;41154;45.394;5.734;2023-04-26T06:07:17;96985.81;;;9.08;100.00
55289;BME280;41154;45.394;5.734;2023-04-26T06:09:45;96979.91;;;9.90;100.00
55289;BME280;41154;45.394;5.734;2023-04-26T06:12:11;96982.94;;;10.33;100.00
55289;BME280;41154;45.394;5.734;2023-04-26T06:14:40;96991.28;;;9.81;100.00
55289;BME280;41154;45.394;5.734;2023-04-26T06:17:11;96995.72;;;10.31;100.00
55289;BME280;41154;45.394;5.734;2023-04-26T06:19:36;96997.56;;;10.92;100.00
55289;BME280;41154;45.394;5.734;2023-04-26T06:22:02;97004.03;;;11.50;100.00
55289;BME280;41154;45.394;5.734;2023-04-26T06:24:29;97001.19;;;13.26;90.38
55289;BME280;41154;45.394;5.734;2023-04-26T06:26:55;96999.31;;;13.47;89.27
55289;BME280;41154;45.394;5.734;2023-04-26T06:29:21;96996.56;;;13.06;91.59
55289;BME280;41154;45.394;5.734;2023-04-26T06:31:47;96988.72;;;15.04;82.84
55289;BME280;41154;45.394;5.734;2023-04-26T06:34:13;96984.81;;;14.81;78.46
55289;BME280;41154;45.394;5.734;2023-04-26T06:36:39;96988.53;;;14.85;78.86
55289;BME280;41154;45.394;5.734;2023-04-26T06:39:05;96983.44;;;13.46;89.00
55289;BME280;41154;45.394;5.734;2023-04-26T06:41:31;96981.94;;;12.87;90.37
55289;BME280;41154;45.394;5.734;2023-04-26T06:43:57;96979.34;;;14.05;86.43
55289;BME280;41154;45.394;5.734;2023-04-26T06:46:29;96971.47;;;15.00;82.60
55289;BME280;41154;45.394;5.734;2023-04-26T06:48:55;96962.00;;;14.32;86.80
55289;BME280;41154;45.394;5.734;2023-04-26T06:51:20;96973.16;;;15.30;83.97
55289;BME280;41154;45.394;5.734;2023-04-26T06:53:47;96961.09;;;16.40;80.55
55289;BME280;41154;45.394;5.734;2023-04-26T06:56:13;96954.13;;;17.01;77.09
55289;BME280;41154;45.394;5.734;2023-04-26T06:58:57;96957.06;;;16.37;76.01
55289;BME280;41154;45.394;5.734;2023-04-26T07:01:23;96950.41;;;16.00;80.59
55289;BME280;41154;45.394;5.734;2023-04-26T07:03:49;96940.84;;;15.84;80.47
55289;BME280;41154;45.394;5.734;2023-04-26T07:06:14;96939.44;;;16.83;77.52
55289;BME280;41154;45.394;5.734;2023-04-26T07:08:41;96938.78;;;16.72;75.46
55289;BME280;41154;45.394;5.734;2023-04-26T07:11:11;96924.88;;;18.29;74.01
55289;BME280;41154;45.394;5.734;2023-04-26T07:13:37;96925.84;;;19.12;67.93
55289;BME280;41154;45.394;5.734;2023-04-26T07:16:03;96924.69;;;17.46;73.84
55289;BME280;41154;45.394;5.734;2023-04-26T07:18:29;96931.47;;;17.63;68.48
55289;BME280;41154;45.394;5.734;2023-04-26T07:20:56;96927.22;;;19.91;64.60
55289;BME280;41154;45.394;5.734;2023-04-26T07:23:22;96930.78;;;18.31;71.69
55289;BME280;41154;45.394;5.734;2023-04-26T07:25:47;96922.81;;;18.77;66.62
55289;BME280;41154;45.394;5.734;2023-04-26T07:28:13;96929.34;;;19.26;64.20
55289;BME280;41154;45.394;5.734;2023-04-26T07:30:40;96931.13;;;19.53;62.50
55289;BME280;41154;45.394;5.734;2023-04-26T07:33:05;96925.22;;;18.92;63.48
55289;BME280;41154;45.394;5.734;2023-04-26T07:35:31;96922.69;;;21.98;50.84
55289;BME280;41154;45.394;5.734;2023-04-26T07:38:01;96924.13;;;19.16;57.16
55289;BME280;41154;45.394;5.734;2023-04-26T07:40:26;96935.75;;;19.30;54.50
55289;BME280;41154;45.394;5.734;2023-04-26T07:42:53;96940.91;;;19.54;53.40
55289;BME280;41154;45.394;5.734;2023-04-26T07:45:20;96944.47;;;19.41;55.23
55289;BME280;41154;45.394;5.734;2023-04-26T07:47:46;96946.94;;;20.77;51.10
55289;BME280;41154;45.394;5.734;2023-04-26T07:50:12;96931.88;;;21.84;48.24
55289;BME280;41154;45.394;5.734;2023-04-26T07:52:38;96934.16;;;21.12;52.52
55289;BME280;41154;45.394;5.734;2023-04-26T07:55:04;96932.56;;;22.88;44.40
55289;BME280;41154;45.394;5.734;2023-04-26T07:57:30;96928.16;;;21.98;46.51
55289;BME280;41154;45.394;5.734;2023-04-26T07:59:56;96938.22;;;20.17;51.91
55289;BME280;41154;45.394;5.734;2023-04-26T08:02:22;96929.06;;;23.09;43.30
55289;BME280;41154;45.394;5.734;2023-04-26T08:04:48;96942.94;;;19.71;53.90
55289;BME280;41154;45.394;5.734;2023-04-26T08:07:17;96942.84;;;21.32;47.84
55289;BME280;41154;45.394;5.734;2023-04-26T08:09:43;96951.00;;;19.77;47.07
55289;BME280;41154;45.394;5.734;2023-04-26T08:12:10;96947.59;;;19.12;53.61
55289;BME280;41154;45.394;5.734;2023-04-26T08:14:37;96953.81;;;20.65;55.23
55289;BME280;41154;45.394;5.734;2023-04-26T08:17:04;96949.34;;;19.30;54.41
55289;BME280;41154;45.394;5.734;2023-04-26T08:19:31;96946.31;;;20.31;51.25
55289;BME280;41154;45.394;5.734;2023-04-26T08:21:57;96947.56;;;20.65;54.13
55289;BME280;41154;45.394;5.734;2023-04-26T08:24:23;96947.97;;;20.50;50.55
55289;BME280;41154;45.394;5.734;2023-04-26T08:26:49;96943.81;;;21.53;55.00
55289;BME280;41154;45.394;5.734;2023-04-26T08:29:15;96947.13;;;21.85;49.42
55289;BME280;41154;45.394;5.734;2023-04-26T08:31:41;96949.09;;;21.41;46.36
55289;BME280;41154;45.394;5.734;2023-04-26T08:34:07;96952.16;;;21.40;47.59
55289;BME280;41154;45.394;5.734;2023-04-26T08:36:38;96952.31;;;22.25;47.92
55289;BME280;41154;45.394;5.734;2023-04-26T08:39:04;96945.13;;;22.89;50.03
55289;BME280;41154;45.394;5.734;2023-04-26T08:41:48;96951.50;;;21.43;49.21
55289;BME280;41154;45.394;5.734;2023-04-26T08:44:14;96959.25;;;22.14;49.08
55289;BME280;41154;45.394;5.734;2023-04-26T08:47:05;96960.50;;;21.61;42.30
55289;BME280;41154;45.394;5.734;2023-04-26T08:49:40;96959.66;;;20.99;43.90
55289;BME280;41154;45.394;5.734;2023-04-26T08:52:09;96955.34;;;21.24;46.12
55289;BME280;41154;45.394;5.734;2023-04-26T08:54:37;96952.28;;;24.12;39.53
55289;BME280;41154;45.394;5.734;2023-04-26T08:57:03;96954.88;;;24.79;36.80
55289;BME280;41154;45.394;5.734;2023-04-26T08:59:29;96942.19;;;21.44;41.13
55289;BME280;41154;45.394;5.734;2023-04-26T09:01:59;96962.31;;;19.70;47.25
55289;BME280;41154;45.394;5.734;2023-04-26T09:04:27;96947.19;;;21.50;47.15
55289;BME280;41154;45.394;5.734;2023-04-26T09:06:55;96953.59;;;21.37;44.98
55289;BME280;41154;45.394;5.734;2023-04-26T09:09:25;96945.81;;;23.28;42.30
55289;BME280;41154;45.394;5.734;2023-04-26T09:11:55;96944.44;;;24.22;41.26
55289;BME280;41154;45.394;5.734;2023-04-26T09:14:23;96948.59;;;24.90;43.55
55289;BME280;41154;45.394;5.734;2023-04-26T09:16:49;96949.84;;;24.44;42.44
55289;BME280;41154;45.394;5.734;2023-04-26T09:19:14;96950.75;;;24.85;38.27
55289;BME280;41154;45.394;5.734;2023-04-26T09:21:45;96953.25;;;20.95;51.44
55289;BME280;41154;45.394;5.734;2023-04-26T09:24:12;96950.66;;;17.66;56.19
55289;BME280;41154;45.394;5.734;2023-04-26T09:26:38;96946.56;;;18.85;53.95
55289;BME280;41154;45.394;5.734;2023-04-26T09:29:15;96947.16;;;17.14;59.40
55289;BME280;41154;45.394;5.734;2023-04-26T09:31:46;96935.16;;;17.01;65.48
55289;BME280;41154;45.394;5.734;2023-04-26T09:34:13;96934.41;;;18.13;63.94
55289;BME280;41154;45.394;5.734;2023-04-26T09:36:53;96930.00;;;18.17;63.05
55289;BME280;41154;45.394;5.734;2023-04-26T09:39:38;96926.84;;;18.93;56.23
55289;BME280;41154;45.394;5.734;2023-04-26T09:42:08;96927.16;;;17.10;58.85
55289;BME280;41154;45.394;5.734;2023-04-26T09:44:36;96932.63;;;17.42;59.19
55289;BME280;41154;45.394;5.734;2023-04-26T09:49:31;96928.47;;;17.97;58.54
55289;BME280;41154;45.394;5.734;2023-04-26T09:52:05;96929.47;;;17.35;63.99
55289;BME280;41154;45.394;5.734;2023-04-26T09:54:51;96924.75;;;17.60;71.91
55289;BME280;41154;45.394;5.734;2023-04-26T09:57:18;96927.88;;;17.67;74.00
55289;BME280;41154;45.394;5.734;2023-04-26T09:59:50;96930.75;;;17.05;65.62
55289;BME280;41154;45.394;5.734;2023-04-26T10:02:22;96921.13;;;17.65;60.69
55289;BME280;41154;45.394;5.734;2023-04-26T10:04:50;96919.16;;;17.18;65.90
55289;BME280;41154;45.394;5.734;2023-04-26T10:07:18;96915.69;;;17.98;61.94
55289;BME280;41154;45.394;5.734;2023-04-26T10:09:45;96915.91;;;17.68;58.27
55289;BME280;41154;45.394;5.734;2023-04-26T10:12:13;96914.78;;;17.55;64.10
55289;BME280;41154;45.394;5.734;2023-04-26T10:14:39;96914.50;;;17.05;63.07
55289;BME280;41154;45.394;5.734;2023-04-26T10:17:06;96908.31;;;16.61;61.52
55289;BME280;41154;45.394;5.734;2023-04-26T10:19:33;96908.25;;;16.42;65.06
55289;BME280;41154;45.394;5.734;2023-04-26T10:22:05;96898.56;;;16.79;66.51
55289;BME280;41154;45.394;5.734;2023-04-26T10:24:36;96903.09;;;17.41;70.17
55289;BME280;41154;45.394;5.734;2023-04-26T10:27:02;96899.19;;;17.14;67.16
55289;BME280;41154;45.394;5.734;2023-04-26T10:32:23;96892.19;;;17.27;62.30
55289;BME280;41154;45.394;5.734;2023-04-26T10:35:11;96892.97;;;17.60;66.56
55289;BME280;41154;45.394;5.734;2023-04-26T10:40:30;96881.44;;;16.84;59.37
55289;BME280;41154;45.394;5.734;2023-04-26T10:45:35;96880.75;;;16.35;62.71
55289;BME280;41154;45.394;5.734;2023-04-26T10:48:17;96874.50;;;16.34;63.04
55289;BME280;41154;45.394;5.734;2023-04-26T10:56:19;96871.53;;;15.88;63.39
55289;BME280;41154;45.394;5.734;2023-04-26T10:59:10;96864.81;;;16.09;60.89
55289;BME280;41154;45.394;5.734;2023-04-26T11:01:37;96868.44;;;15.99;60.77
55289;BME280;41154;45.394;5.734;2023-04-26T11:04:08;96871.09;;;16.05;58.76
55289;BME280;41154;45.394;5.734;2023-04-26T11:06:54;96859.00;;;15.97;61.16
55289;BME280;41154;45.394;5.734;2023-04-26T11:09:33;96862.63;;;15.87;64.88
55289;BME280;41154;45.394;5.734;2023-04-26T11:12:02;96857.47;;;16.34;62.32
55289;BME280;41154;45.394;5.734;2023-04-26T11:14:29;96855.22;;;16.22;62.98
55289;BME280;41154;45.394;5.734;2023-04-26T11:16:55;96868.91;;;16.07;63.32
55289;BME280;41154;45.394;5.734;2023-04-26T11:19:21;96856.47;;;16.30;61.72
55289;BME280;41154;45.394;5.734;2023-04-26T11:21:47;96849.78;;;16.22;61.81
55289;BME280;41154;45.394;5.734;2023-04-26T11:24:16;96855.78;;;15.71;62.97
55289;BME280;41154;45.394;5.734;2023-04-26T11:26:51;96854.06;;;16.04;62.78
55289;BME280;41154;45.394;5.734;2023-04-26T11:29:21;96846.03;;;16.61;59.30
55289;BME280;41154;45.394;5.734;2023-04-26T11:31:53;96842.56;;;16.56;59.98
55289;BME280;41154;45.394;5.734;2023-04-26T11:34:33;96834.38;;;16.61;59.38
55289;BME280;41154;45.394;5.734;2023-04-26T11:37:03;96832.03;;;16.73;62.80
55289;BME280;41154;45.394;5.734;2023-04-26T11:39:36;96839.84;;;15.69;61.84
55289;BME280;41154;45.394;5.734;2023-04-26T11:42:09;96829.44;;;16.25;62.58
55289;BME280;41154;45.394;5.734;2023-04-26T11:44:36;96829.03;;;16.37;62.12
55289;BME280;41154;45.394;5.734;2023-04-26T11:47:03;96830.72;;;16.51;62.23
55289;BME280;41154;45.394;5.734;2023-04-26T11:49:35;96824.50;;;16.51;65.18
55289;BME280;41154;45.394;5.734;2023-04-26T11:52:02;96820.22;;;16.07;64.63
55289;BME280;41154;45.394;5.734;2023-04-26T11:54:31;96811.53;;;16.67;67.62
55289;BME280;41154;45.394;5.734;2023-04-26T11:56:57;96825.25;;;16.57;63.63
55289;BME280;41154;45.394;5.734;2023-04-26T11:59:24;96817.47;;;16.69;69.02
55289;BME280;41154;45.394;5.734;2023-04-26T12:01:50;96820.31;;;16.59;62.48
55289;BME280;41154;45.394;5.734;2023-04-26T12:04:18;96828.38;;;16.64;64.67
55289;BME280;41154;45.394;5.734;2023-04-26T12:06:45;96821.28;;;16.49;65.51
55289;BME280;41154;45.394;5.734;2023-04-26T12:09:11;96819.66;;;16.29;67.97
55289;BME280;41154;45.394;5.734;2023-04-26T12:11:38;96827.69;;;16.15;66.08
55289;BME280;41154;45.394;5.734;2023-04-26T12:14:04;96826.81;;;15.95;67.28
55289;BME280;41154;45.394;5.734;2023-04-26T12:16:30;96814.66;;;16.17;66.89
55289;BME280;41154;45.394;5.734;2023-04-26T12:18:56;96820.91;;;16.56;64.41
55289;BME280;41154;45.394;5.734;2023-04-26T12:21:22;96807.28;;;16.61;64.92
55289;BME280;41154;45.394;5.734;2023-04-26T12:23:52;96811.03;;;16.65;65.39
55289;BME280;41154;45.394;5.734;2023-04-26T12:26:17;96817.19;;;16.70;68.36
55289;BME280;41154;45.394;5.734;2023-04-26T12:28:45;96814.97;;;16.73;64.26
55289;BME280;41154;45.394;5.734;2023-04-26T12:31:12;96820.41;;;16.92;61.85
55289;BME280;41154;45.394;5.734;2023-04-26T12:33:38;96812.28;;;16.92;63.72
55289;BME280;41154;45.394;5.734;2023-04-26T12:36:11;96818.44;;;16.78;67.04
55289;BME280;41154;45.394;5.734;2023-04-26T12:38:37;96823.59;;;16.94;68.68
55289;BME280;41154;45.394;5.734;2023-04-26T12:41:04;96816.38;;;16.70;66.07
55289;BME280;41154;45.394;5.734;2023-04-26T12:43:30;96817.03;;;16.62;66.65
55289;BME280;41154;45.394;5.734;2023-04-26T12:45:55;96808.69;;;16.39;64.38
55289;BME280;41154;45.394;5.734;2023-04-26T12:48:21;96810.09;;;16.37;65.63
55289;BME280;41154;45.394;5.734;2023-04-26T12:50:47;96795.88;;;16.64;64.88
55289;BME280;41154;45.394;5.734;2023-04-26T12:53:13;96790.50;;;16.97;64.71
55289;BME280;41154;45.394;5.734;2023-04-26T12:55:39;96787.19;;;17.00;65.76
55289;BME280;41154;45.394;5.734;2023-04-26T12:58:04;96787.34;;;17.09;62.93
55289;BME280;41154;45.394;5.734;2023-04-26T13:00:30;96789.75;;;16.58;63.12
55289;BME280;41154;45.394;5.734;2023-04-26T13:02:56;96788.28;;;16.66;64.33
55289;BME280;41154;45.394;5.734;2023-04-26T13:05:22;96789.22;;;16.94;63.16
55289;BME280;41154;45.394;5.734;2023-04-26T13:07:51;96782.22;;;16.55;62.93
55289;BME280;41154;45.394;5.734;2023-04-26T13:10:17;96788.53;;;16.83;66.34
55289;BME280;41154;45.394;5.734;2023-04-26T13:12:42;96794.75;;;16.84;65.44
55289;BME280;41154;45.394;5.734;2023-04-26T13:15:09;96790.59;;;16.73;63.38
55289;BME280;41154;45.394;5.734;2023-04-26T13:17:36;96785.34;;;16.81;62.66
55289;BME280;41154;45.394;5.734;2023-04-26T13:20:05;96785.06;;;17.16;60.56